Time;durP1;ratioP1;P1;durP2;ratioP2;P2;SDS_P1;SDS_P2;PMS_P1;PMS_P2;Temp;Humidity;BMP_temperature;BMP_pressure;BME280_temperature;BME280_humidity;BME280_pressure;Samples;Min_cycle;Max_cycle;Signal;HPM_P1;HPM_P2
2022/10/27 00:00:15;;;;;;;9.98;4.93;;;;;;;13.79;100.00;102058.47;5071485;28;20472;-74
2022/10/27 00:02:40;;;;;;;8.23;4.10;;;;;;;13.73;100.00;102059.22;5071391;28;20036;-73
2022/10/27 00:05:06;;;;;;;9.85;4.78;;;;;;;13.70;100.00;102065.78;5071322;28;20024;-73
2022/10/27 00:07:35;;;;;;;9.23;4.60;;;;;;;13.67;100.00;102066.16;5071129;28;20032;-74
2022/10/27 00:10:01;;;;;;;9.00;4.63;;;;;;;13.62;100.00;102062.38;5071318;28;20052;-73
2022/10/27 00:12:28;;;;;;;8.90;4.25;;;;;;;13.59;100.00;102064.41;5071081;28;20102;-75
2022/10/27 00:14:54;;;;;;;8.40;4.32;;;;;;;13.56;100.00;102067.47;5071176;28;20029;-73
2022/10/27 00:17:20;;;;;;;11.35;5.43;;;;;;;13.51;100.00;102061.00;5071131;28;20052;-73
2022/10/27 00:19:46;;;;;;;9.55;4.32;;;;;;;13.46;100.00;102061.53;5070721;28;20083;-73
2022/10/27 00:22:11;;;;;;;12.75;4.63;;;;;;;13.47;100.00;102073.94;5070460;28;20074;-73
2022/10/27 00:24:36;;;;;;;13.63;5.22;;;;;;;13.44;100.00;102068.09;5070893;28;20058;-74
2022/10/27 00:27:02;;;;;;;9.90;5.00;;;;;;;13.41;100.00;102068.47;5070812;28;20056;-73
2022/10/27 00:29:27;;;;;;;10.40;4.50;;;;;;;13.39;100.00;102071.38;5070807;28;20072;-73
2022/10/27 00:31:53;;;;;;;9.50;4.57;;;;;;;13.33;100.00;102058.69;5070798;28;20071;-73
2022/10/27 00:34:18;;;;;;;10.77;5.18;;;;;;;13.36;100.00;102072.56;5070823;28;20067;-73
2022/10/27 00:36:43;;;;;;;9.27;4.82;;;;;;;13.33;100.00;102072.91;5074086;28;20070;-73
2022/10/27 00:39:09;;;;;;;13.43;4.93;;;;;;;13.31;100.00;102066.94;5090078;28;20039;-73
2022/10/27 00:41:39;;;;;;;9.07;4.95;;;;;;;13.30;100.00;102069.78;5090050;28;20028;-74
2022/10/27 00:44:40;;;;;;;12.15;5.93;;;;;;;13.29;100.00;102070.81;5090013;28;20386;-73
2022/10/27 00:47:08;;;;;;;10.02;5.22;;;;;;;13.28;100.00;102080.69;5090236;28;20153;-74
2022/10/27 00:49:42;;;;;;;10.57;4.72;;;;;;;13.22;100.00;102067.16;5089883;28;20038;-73
2022/10/27 00:52:15;;;;;;;10.85;5.32;;;;;;;13.25;100.00;102085.53;5089796;28;20024;-74
2022/10/27 00:54:41;;;;;;;9.82;4.63;;;;;;;13.21;100.00;102081.59;5070292;28;20039;-73
2022/10/27 00:57:09;;;;;;;12.10;5.25;;;;;;;13.23;100.00;102084.88;5076193;28;20484;-73
2022/10/27 00:59:36;;;;;;;6.82;4.65;;;;;;;13.21;100.00;102084.25;5079116;28;20032;-73
2022/10/27 01:02:02;;;;;;;8.80;4.18;;;;;;;13.21;100.00;102086.94;5069445;28;20028;-74
2022/10/27 01:04:46;;;;;;;12.77;4.85;;;;;;;13.20;100.00;102086.09;5070016;28;20052;-73
2022/10/27 01:07:14;;;;;;;10.05;5.32;;;;;;;13.22;100.00;102086.75;5070169;28;20028;-73
2022/10/27 01:09:41;;;;;;;8.98;5.10;;;;;;;13.22;100.00;102084.06;5069393;28;20020;-74
2022/10/27 01:12:07;;;;;;;12.68;4.93;;;;;;;13.25;100.00;102088.22;5069920;28;20467;-74
2022/10/27 01:14:32;;;;;;;8.70;4.70;;;;;;;13.26;100.00;102087.22;5069528;28;20119;-73
2022/10/27 01:17:13;;;;;;;10.00;4.82;;;;;;;13.28;100.00;102086.06;5070872;28;20123;-74
2022/10/27 01:19:50;;;;;;;9.63;5.15;;;;;;;13.31;100.00;102088.38;5089259;28;20474;-73
2022/10/27 01:22:27;;;;;;;13.38;5.80;;;;;;;13.33;100.00;102091.66;5069474;28;20068;-73
2022/10/27 01:25:19;;;;;;;10.68;4.93;;;;;;;13.36;100.00;102094.00;5069941;28;20040;-74
2022/10/27 01:28:21;;;;;;;11.60;5.43;;;;;;;13.39;100.00;102103.53;5045116;28;20055;-74
2022/10/27 01:30:59;;;;;;;10.75;5.40;;;;;;;13.40;100.00;102099.81;5087573;28;20724;-74
2022/10/27 01:33:34;;;;;;;16.38;5.30;;;;;;;13.42;100.00;102100.47;5069837;28;20058;-74
2022/10/27 01:36:11;;;;;;;12.40;4.30;;;;;;;13.47;100.00;102103.44;5069929;28;20110;-73
2022/10/27 01:38:46;;;;;;;7.88;4.55;;;;;;;13.50;100.00;102099.53;5069730;28;20024;-74
2022/10/27 01:41:19;;;;;;;9.85;4.88;;;;;;;13.52;100.00;102095.66;5069781;28;20025;-73
2022/10/27 01:43:47;;;;;;;7.35;4.38;;;;;;;13.53;100.00;102091.94;5069575;28;20484;-74
2022/10/27 01:46:14;;;;;;;10.65;4.28;;;;;;;13.58;100.00;102097.59;5070583;28;20027;-74
2022/10/27 01:48:40;;;;;;;12.13;5.07;;;;;;;13.54;100.00;102088.25;5072164;28;20418;-74
2022/10/27 01:51:06;;;;;;;10.43;4.93;;;;;;;13.59;100.00;102099.25;5051240;28;20501;-74
2022/10/27 01:53:38;;;;;;;9.82;4.70;;;;;;;13.57;100.00;102095.94;5069604;28;20071;-73
2022/10/27 01:56:04;;;;;;;9.35;4.50;;;;;;;13.60;100.00;102092.06;5089022;28;20024;-74
2022/10/27 01:58:47;;;;;;;12.97;5.13;;;;;;;13.62;100.00;102095.38;5070946;28;20054;-73
2022/10/27 02:01:29;;;;;;;12.25;5.00;;;;;;;13.63;100.00;102096.22;5088704;28;20782;-74
2022/10/27 02:04:00;;;;;;;9.75;4.80;;;;;;;13.62;100.00;102097.22;5088457;28;20032;-74
2022/10/27 02:06:49;;;;;;;13.02;5.30;;;;;;;13.64;100.00;102097.88;5088806;28;20047;-74
2022/10/27 02:09:24;;;;;;;9.27;5.22;;;;;;;13.65;100.00;102091.47;5088576;28;20491;-74
2022/10/27 02:11:52;;;;;;;9.57;4.00;;;;;;;13.64;100.00;102092.50;5088693;28;20542;-74
2022/10/27 02:14:19;;;;;;;10.90;4.00;;;;;;;13.63;100.00;102080.97;5090656;28;20085;-73
2022/10/27 02:16:51;;;;;;;11.23;4.18;;;;;;;13.61;100.00;102080.31;5092812;28;20363;-74
2022/10/27 02:19:31;;;;;;;5.32;4.00;;;;;;;13.62;100.00;102079.28;5092646;28;20028;-73
2022/10/27 02:21:59;;;;;;;11.27;4.45;;;;;;;13.62;100.00;102086.50;5077949;28;20036;-73
2022/10/27 02:24:25;;;;;;;10.98;4.43;;;;;;;13.58;100.00;102078.00;5072897;28;20036;-73
2022/10/27 02:26:57;;;;;;;8.30;4.65;;;;;;;13.57;100.00;102066.47;5077815;28;20051;-74
2022/10/27 02:29:31;;;;;;;6.75;4.22;;;;;;;13.62;100.00;102076.59;5073127;28;20466;-73
2022/10/27 02:32:00;;;;;;;16.17;4.72;;;;;;;13.61;100.00;102069.59;5073186;28;20472;-74
2022/10/27 02:34:27;;;;;;;10.63;4.63;;;;;;;13.63;100.00;102066.72;5072984;28;20028;-74
2022/10/27 02:36:52;;;;;;;5.97;3.30;;;;;;;13.64;100.00;102068.38;5073195;28;20029;-74
2022/10/27 02:39:18;;;;;;;11.50;3.50;;;;;;;13.67;100.00;102073.38;5072942;28;20387;-66
2022/10/27 02:41:43;;;;;;;8.45;3.70;;;;;;;13.65;100.00;102067.34;5072768;28;20036;-66
2022/10/27 02:44:08;;;;;;;6.57;3.85;;;;;;;13.66;100.00;102077.06;5072832;28;20064;-66
2022/10/27 02:46:34;;;;;;;12.00;4.45;;;;;;;13.65;100.00;102073.56;5072975;28;20082;-67
2022/10/27 02:48:59;;;;;;;7.70;3.03;;;;;;;13.63;100.00;102072.09;5072715;28;20111;-67
2022/10/27 02:51:24;;;;;;;11.48;3.88;;;;;;;13.61;100.00;102069.59;5072584;28;20045;-66
2022/10/27 02:53:50;;;;;;;7.78;3.80;;;;;;;13.58;100.00;102073.47;5072730;28;20033;-67
2022/10/27 02:56:15;;;;;;;9.02;4.18;;;;;;;13.56;100.00;102067.47;5072583;28;20033;-67
2022/10/27 02:58:40;;;;;;;7.68;3.72;;;;;;;13.56;100.00;102061.25;5072615;28;20068;-66
2022/10/27 03:01:06;;;;;;;7.85;4.47;;;;;;;13.54;100.00;102055.25;5072665;28;20083;-67
2022/10/27 03:03:31;;;;;;;6.68;3.33;;;;;;;13.54;100.00;102058.75;5072645;28;20032;-66
2022/10/27 03:05:56;;;;;;;9.43;3.72;;;;;;;13.52;100.00;102055.47;5072468;28;20085;-66
2022/10/27 03:08:22;;;;;;;6.53;3.83;;;;;;;13.50;100.00;102059.34;5054645;28;20468;-67
2022/10/27 03:10:47;;;;;;;7.22;3.58;;;;;;;13.50;100.00;102056.66;5072099;28;20032;-66
2022/10/27 03:13:12;;;;;;;10.90;4.53;;;;;;;13.48;100.00;102054.16;5072498;28;20031;-66
2022/10/27 03:15:38;;;;;;;8.85;4.30;;;;;;;13.48;100.00;102054.16;5072420;28;20119;-67
2022/10/27 03:18:03;;;;;;;9.45;4.38;;;;;;;13.43;100.00;102047.69;5072180;28;20060;-66
2022/10/27 03:20:29;;;;;;;19.52;5.45;;;;;;;13.44;100.00;102049.34;5072353;28;20028;-66
2022/10/27 03:22:54;;;;;;;12.35;5.28;;;;;;;13.43;100.00;102045.00;5072370;28;20475;-66
2022/10/27 03:25:19;;;;;;;12.85;5.47;;;;;;;13.42;100.00;102038.84;5071332;28;20032;-67
2022/10/27 03:27:45;;;;;;;12.93;6.57;;;;;;;13.40;100.00;102037.34;5071976;28;20048;-67
2022/10/27 03:30:15;;;;;;;12.80;6.68;;;;;;;13.36;100.00;102043.09;5072120;28;20043;-67
2022/10/27 03:32:47;;;;;;;15.13;8.10;;;;;;;13.34;100.00;102039.75;5072104;28;20040;-66
2022/10/27 03:35:14;;;;;;;12.85;6.88;;;;;;;13.30;100.00;102030.41;5072125;28;20033;-66
2022/10/27 03:37:39;;;;;;;11.52;6.93;;;;;;;13.27;100.00;102041.50;5072041;28;20026;-67
2022/10/27 03:40:05;;;;;;;14.75;6.93;;;;;;;13.25;100.00;102040.81;5071765;28;20024;-66
2022/10/27 03:42:30;;;;;;;12.90;7.25;;;;;;;13.13;100.00;102027.06;5071911;28;20040;-67
2022/10/27 03:44:56;;;;;;;12.30;7.07;;;;;;;13.13;100.00;102045.81;5071830;28;20020;-67
2022/10/27 03:47:21;;;;;;;10.50;6.47;;;;;;;13.07;100.00;102035.00;5071552;28;20137;-67
2022/10/27 03:49:46;;;;;;;10.70;5.80;;;;;;;12.97;100.00;102037.97;5071582;28;20115;-66
2022/10/27 03:52:12;;;;;;;14.55;6.60;;;;;;;12.96;100.00;102038.16;5070917;28;20480;-67
2022/10/27 03:54:37;;;;;;;15.02;8.20;;;;;;;12.95;100.00;102029.28;5071170;28;20499;-67
2022/10/27 03:57:02;;;;;;;18.92;9.63;;;;;;;12.92;100.00;102037.69;5071625;28;20063;-66
2022/10/27 03:59:28;;;;;;;14.70;8.65;;;;;;;12.89;100.00;102032.66;5071477;28;20033;-66
2022/10/27 04:01:53;;;;;;;15.48;7.70;;;;;;;12.87;100.00;102034.72;5053339;28;20081;-66
2022/10/27 04:04:19;;;;;;;11.63;6.55;;;;;;;12.77;100.00;102021.59;5071196;28;20037;-66
2022/10/27 04:06:44;;;;;;;11.80;7.30;;;;;;;12.78;100.00;102027.78;5071366;28;20025;-66
2022/10/27 04:09:09;;;;;;;16.70;8.57;;;;;;;12.78;100.00;102035.81;5071181;28;20475;-66
2022/10/27 04:11:34;;;;;;;12.73;6.82;;;;;;;12.76;100.00;102027.97;5071330;28;20479;-67
2022/10/27 04:14:00;;;;;;;11.52;7.03;;;;;;;12.68;100.00;102026.19;5053390;28;20498;-66
2022/10/27 04:16:25;;;;;;;12.10;6.38;;;;;;;12.70;100.00;102037.53;5072153;28;20541;-66
2022/10/27 04:18:51;;;;;;;11.43;6.10;;;;;;;12.69;100.00;102027.03;5071171;28;20109;-66
2022/10/27 04:21:16;;;;;;;14.23;7.05;;;;;;;12.68;100.00;102036.91;5071081;28;20043;-66
2022/10/27 04:23:42;;;;;;;12.38;6.10;;;;;;;12.67;100.00;102037.06;5070941;28;20094;-66
2022/10/27 04:26:07;;;;;;;10.25;5.78;;;;;;;12.65;100.00;102041.78;5070654;28;20075;-66
2022/10/27 04:28:33;;;;;;;11.82;5.25;;;;;;;12.61;100.00;102035.13;5070787;28;20119;-66
2022/10/27 04:30:58;;;;;;;12.73;5.82;;;;;;;12.56;100.00;102037.53;5070930;28;20197;-67
2022/10/27 04:33:24;;;;;;;11.90;5.15;;;;;;;12.50;100.00;102044.44;5070664;28;20025;-66
2022/10/27 04:35:49;;;;;;;11.32;5.07;;;;;;;12.49;100.00;102045.41;5070892;28;20035;-66
2022/10/27 04:38:15;;;;;;;12.68;6.25;;;;;;;12.47;100.00;102040.25;5070556;28;20677;-66
2022/10/27 04:40:40;;;;;;;10.55;4.45;;;;;;;12.48;100.00;102049.13;5070571;28;20382;-66
2022/10/27 04:43:06;;;;;;;15.18;5.22;;;;;;;12.49;100.00;102050.78;5070712;28;20056;-66
2022/10/27 04:45:32;;;;;;;11.85;5.60;;;;;;;12.50;100.00;102047.09;5070463;28;20032;-66
2022/10/27 04:47:58;;;;;;;7.35;4.63;;;;;;;12.46;100.00;102048.47;5035752;28;20043;-66
2022/10/27 04:50:23;;;;;;;9.82;4.53;;;;;;;12.46;100.00;102067.19;5070644;28;20028;-66
2022/10/27 04:53:01;;;;;;;10.02;4.25;;;;;;;12.40;100.00;102062.56;5070358;28;20463;-67
2022/10/27 04:55:31;;;;;;;8.07;4.63;;;;;;;12.26;100.00;102059.66;5070461;28;20132;-66
2022/10/27 04:57:56;;;;;;;8.77;5.13;;;;;;;12.25;100.00;102057.97;5070304;28;20031;-66
2022/10/27 05:00:22;;;;;;;11.18;4.60;;;;;;;12.18;100.00;102067.75;5070424;28;20028;-66
2022/10/27 05:02:56;;;;;;;8.10;4.95;;;;;;;12.13;100.00;102070.13;5070085;28;20119;-66
2022/10/27 05:05:22;;;;;;;8.80;3.67;;;;;;;12.04;100.00;102063.13;5070187;28;20025;-66
2022/10/27 05:07:59;;;;;;;9.15;5.07;;;;;;;12.03;100.00;102046.25;5070190;28;20035;-67
2022/10/27 05:10:25;;;;;;;8.13;4.53;;;;;;;12.06;100.00;102055.78;5069760;28;20020;-67
2022/10/27 05:12:51;;;;;;;9.32;4.07;;;;;;;12.07;100.00;102057.44;5070244;28;20032;-66
2022/10/27 05:15:16;;;;;;;7.85;4.35;;;;;;;12.09;100.00;102060.75;5070272;28;20082;-66
2022/10/27 05:17:41;;;;;;;11.02;5.57;;;;;;;12.10;100.00;102059.75;5070050;28;20036;-66
2022/10/27 05:20:08;;;;;;;9.63;4.82;;;;;;;12.15;100.00;102057.38;5070013;28;20052;-66
2022/10/27 05:22:33;;;;;;;10.52;5.47;;;;;;;12.14;100.00;102058.41;5070031;28;20032;-66
2022/10/27 05:24:58;;;;;;;13.85;4.68;;;;;;;12.18;100.00;102061.53;5069931;28;20027;-66
2022/10/27 05:27:24;;;;;;;9.50;6.00;;;;;;;12.21;100.00;102058.53;5069291;28;20057;-66
2022/10/27 05:29:49;;;;;;;7.45;4.07;;;;;;;12.22;100.00;102054.84;5069786;28;20025;-66
2022/10/27 05:32:14;;;;;;;25.17;5.22;;;;;;;12.24;100.00;102050.16;5069749;28;20392;-66
2022/10/27 05:34:40;;;;;;;10.20;4.88;;;;;;;12.24;100.00;102052.81;5069889;28;20093;-66
2022/10/27 05:37:06;;;;;;;8.07;5.22;;;;;;;12.21;100.00;102048.66;5069817;28;20673;-66
2022/10/27 05:39:31;;;;;;;9.63;5.22;;;;;;;12.19;100.00;102037.28;5069725;28;20021;-66
2022/10/27 05:41:57;;;;;;;11.98;5.50;;;;;;;12.26;100.00;102051.63;5069468;28;20059;-66
2022/10/27 05:44:22;;;;;;;11.80;5.90;;;;;;;12.24;100.00;102050.16;5069286;28;20024;-67
2022/10/27 05:46:47;;;;;;;8.75;4.80;;;;;;;12.27;100.00;102052.47;5069657;28;20525;-66
2022/10/27 05:49:13;;;;;;;10.63;4.70;;;;;;;12.24;100.00;102050.97;5068955;28;20425;-66
2022/10/27 05:51:38;;;;;;;14.02;5.72;;;;;;;12.31;100.00;102051.06;5069635;28;20032;-66
2022/10/27 05:54:03;;;;;;;10.15;3.75;;;;;;;12.34;100.00;102041.84;5069495;28;20139;-66
2022/10/27 05:56:29;;;;;;;9.35;5.03;;;;;;;12.38;100.00;102051.19;5069482;28;20039;-67
2022/10/27 05:58:54;;;;;;;9.38;4.72;;;;;;;12.37;100.00;102050.38;5069681;28;20028;-66
2022/10/27 06:01:20;;;;;;;4.70;3.92;;;;;;;12.38;100.00;102048.53;5069614;28;20071;-66
2022/10/27 06:03:45;;;;;;;9.05;3.90;;;;;;;12.39;100.00;102048.38;5069433;28;20035;-66
2022/10/27 06:06:11;;;;;;;8.85;4.38;;;;;;;12.42;100.00;102044.50;5069450;28;20075;-67
2022/10/27 06:08:36;;;;;;;9.82;4.97;;;;;;;12.42;100.00;102037.28;5069514;28;20052;-66
2022/10/27 06:11:02;;;;;;;8.15;4.45;;;;;;;12.43;100.00;102044.31;5051223;28;20426;-67
2022/10/27 06:13:29;;;;;;;8.35;3.90;;;;;;;12.43;100.00;102038.13;5069468;28;20033;-66
2022/10/27 06:15:54;;;;;;;11.75;5.95;;;;;;;12.42;100.00;102026.59;5069353;28;20535;-66
2022/10/27 06:18:19;;;;;;;8.60;4.45;;;;;;;12.45;100.00;102025.41;5069182;28;20107;-66
2022/10/27 06:20:45;;;;;;;8.38;4.20;;;;;;;12.47;100.00;102026.03;5069303;28;20479;-67
2022/10/27 06:23:10;;;;;;;8.88;4.05;;;;;;;12.49;100.00;102024.84;5069029;28;20098;-67
2022/10/27 06:25:36;;;;;;;7.85;3.35;;;;;;;12.44;100.00;102021.03;5069035;28;20028;-67
2022/10/27 06:28:01;;;;;;;7.22;4.55;;;;;;;12.54;100.00;102035.00;5068744;28;20041;-66
2022/10/27 06:30:26;;;;;;;6.95;3.67;;;;;;;12.54;100.00;102031.50;5068741;28;20035;-66
2022/10/27 06:32:52;;;;;;;7.30;4.15;;;;;;;12.54;100.00;102032.34;5068647;28;20086;-66
2022/10/27 06:35:18;;;;;;;8.82;5.50;;;;;;;12.57;100.00;102029.28;5068876;28;20033;-66
2022/10/27 06:37:45;;;;;;;7.10;3.35;;;;;;;12.57;100.00;102040.00;5069179;28;20082;-67
2022/10/27 06:40:13;;;;;;;5.05;3.90;;;;;;;12.59;100.00;102035.31;5069010;28;20099;-67
2022/10/27 06:42:38;;;;;;;6.72;3.70;;;;;;;12.58;100.00;102030.97;5069514;28;20090;-67
2022/10/27 06:45:04;;;;;;;10.60;5.22;;;;;;;12.62;100.00;102028.75;5068441;28;20032;-67
2022/10/27 06:47:30;;;;;;;6.20;3.08;;;;;;;12.64;100.00;102022.22;5068749;28;20135;-66
2022/10/27 06:49:55;;;;;;;9.38;4.90;;;;;;;12.65;100.00;102025.72;5071285;28;20131;-66
2022/10/27 06:52:21;;;;;;;12.10;4.07;;;;;;;12.58;100.00;102004.22;5088139;28;20490;-66
2022/10/27 06:54:46;;;;;;;8.77;4.13;;;;;;;12.63;100.00;102023.22;5088125;28;20071;-67
2022/10/27 06:57:11;;;;;;;11.25;4.07;;;;;;;12.64;100.00;102014.19;5070367;28;20024;-66
2022/10/27 06:59:37;;;;;;;8.50;4.25;;;;;;;12.70;100.00;102024.16;5070288;28;20198;-67
2022/10/27 07:02:03;;;;;;;11.65;4.47;;;;;;;12.69;100.00;102017.16;5091164;28;20062;-66
2022/10/27 07:04:28;;;;;;;8.98;3.58;;;;;;;12.69;100.00;102014.47;5091931;28;20028;-66
2022/10/27 07:06:54;;;;;;;8.27;3.72;;;;;;;12.72;100.00;102015.94;5091890;28;20028;-66
2022/10/27 07:09:19;;;;;;;8.20;3.63;;;;;;;12.74;100.00;102015.78;5091526;28;20059;-66
2022/10/27 07:11:44;;;;;;;10.50;5.32;;;;;;;12.77;100.00;102010.88;5091400;28;20034;-67
2022/10/27 07:14:10;;;;;;;8.63;4.03;;;;;;;12.78;100.00;102001.00;5091531;28;20036;-67
2022/10/27 07:16:35;;;;;;;7.57;4.32;;;;;;;12.81;100.00;102001.47;5091590;28;20310;-67
2022/10/27 07:19:01;;;;;;;9.18;3.75;;;;;;;12.89;100.00;102004.06;5091501;28;20439;-66
2022/10/27 07:21:27;;;;;;;7.82;4.10;;;;;;;12.94;100.00;102009.72;5091480;28;20057;-67
2022/10/27 07:23:53;;;;;;;9.82;4.03;;;;;;;12.99;100.00;102019.03;5091365;28;20031;-67
2022/10/27 07:26:18;;;;;;;6.50;3.55;;;;;;;13.06;100.00;102014.59;5078906;28;20067;-66
2022/10/27 07:28:43;;;;;;;6.50;3.92;;;;;;;13.11;100.00;102026.41;5079630;28;20109;-66
2022/10/27 07:31:09;;;;;;;11.48;4.63;;;;;;;13.18;100.00;102009.59;5078704;28;20089;-66
2022/10/27 07:33:35;;;;;;;10.68;4.35;;;;;;;13.25;100.00;102022.06;5078018;28;20190;-66
2022/10/27 07:36:00;;;;;;;8.77;3.92;;;;;;;13.32;100.00;102019.53;5078323;28;20624;-66
2022/10/27 07:38:26;;;;;;;9.25;3.92;;;;;;;13.42;100.00;102017.41;5078947;28;20043;-65
2022/10/27 07:40:51;;;;;;;8.77;3.70;;;;;;;13.57;100.00;102020.88;5078907;28;20039;-65
2022/10/27 07:43:17;;;;;;;11.73;4.10;;;;;;;13.72;100.00;102014.66;5079725;28;20064;-66
2022/10/27 07:45:42;;;;;;;8.07;3.53;;;;;;;13.91;100.00;102013.19;5077698;28;20029;-66
2022/10/27 07:48:13;;;;;;;10.57;3.75;;;;;;;14.12;100.00;102012.38;5078799;28;20036;-65
2022/10/27 07:50:39;;;;;;;12.45;4.68;;;;;;;14.26;100.00;102016.88;5060375;28;20363;-65
2022/10/27 07:53:04;;;;;;;4.78;3.10;;;;;;;14.35;100.00;102015.69;5078438;28;20040;-68
2022/10/27 07:55:31;;;;;;;6.40;3.58;;;;;;;14.42;100.00;102021.13;5078620;28;20028;-66
2022/10/27 07:57:59;;;;;;;8.73;3.90;;;;;;;14.49;100.00;102019.34;5078686;28;20020;-66
2022/10/27 08:00:25;;;;;;;4.20;2.65;;;;;;;14.58;99.65;102020.06;5078700;28;20020;-66
2022/10/27 08:02:50;;;;;;;7.88;4.18;;;;;;;14.69;100.00;102014.97;5078634;28;20036;-67
2022/10/27 08:05:15;;;;;;;7.32;3.40;;;;;;;14.80;98.92;102015.47;5059412;28;20502;-66
2022/10/27 08:07:41;;;;;;;9.88;3.65;;;;;;;14.85;97.16;102013.84;5079298;28;20514;-64
2022/10/27 08:10:07;;;;;;;7.53;3.25;;;;;;;14.91;97.11;102017.63;5078062;28;20475;-64
2022/10/27 08:12:33;;;;;;;10.00;4.18;;;;;;;14.96;96.19;102017.88;5082249;28;20032;-65
2022/10/27 08:14:58;;;;;;;4.43;2.70;;;;;;;14.99;96.23;102009.41;5089658;28;20028;-65
2022/10/27 08:17:27;;;;;;;4.93;2.55;;;;;;;15.03;95.28;102015.19;5089879;28;20366;-64
2022/10/27 08:19:53;;;;;;;7.22;3.33;;;;;;;15.06;95.47;102023.72;5089794;28;20024;-66
2022/10/27 08:22:18;;;;;;;6.65;2.70;;;;;;;15.06;94.91;102018.34;5089325;28;20382;-65
2022/10/27 08:24:44;;;;;;;11.88;3.75;;;;;;;15.08;94.65;102016.25;5089428;28;20031;-66
2022/10/27 08:27:09;;;;;;;9.80;3.42;;;;;;;15.05;94.42;102016.66;5070365;28;20080;-64
2022/10/27 08:29:34;;;;;;;4.90;2.30;;;;;;;15.06;95.57;102023.72;5070728;28;20035;-65
2022/10/27 08:32:00;;;;;;;4.97;3.17;;;;;;;15.09;95.50;102019.78;5070458;28;20028;-64
2022/10/27 08:34:25;;;;;;;6.47;3.15;;;;;;;15.10;94.33;102008.03;5069863;28;20597;-66
2022/10/27 08:36:50;;;;;;;6.57;3.58;;;;;;;15.16;94.27;101998.31;5070833;28;20560;-66
2022/10/27 08:39:16;;;;;;;6.50;3.05;;;;;;;15.17;93.36;101992.78;5070815;28;20056;-66
2022/10/27 08:41:54;;;;;;;6.35;2.53;;;;;;;15.28;93.40;101999.44;5070202;28;20032;-66
2022/10/27 08:44:31;;;;;;;5.53;2.90;;;;;;;15.42;93.25;102001.13;5070406;28;20090;-66
2022/10/27 08:47:03;;;;;;;8.50;2.63;;;;;;;15.60;91.42;101995.22;5070472;28;20028;-66
2022/10/27 08:49:39;;;;;;;5.25;2.78;;;;;;;15.78;90.70;101997.38;5070624;28;20490;-66
2022/10/27 08:52:13;;;;;;;6.90;3.00;;;;;;;15.97;89.40;101998.44;5070505;28;20044;-66
2022/10/27 08:54:42;;;;;;;5.57;2.42;;;;;;;16.11;88.53;101993.91;5086165;28;20055;-65
2022/10/27 08:57:12;;;;;;;15.45;2.97;;;;;;;16.26;87.70;101991.84;5089822;28;20051;-65
2022/10/27 08:59:37;;;;;;;6.30;2.42;;;;;;;16.41;87.82;101997.03;5089514;28;20094;-66
2022/10/27 09:02:24;;;;;;;6.93;3.50;;;;;;;16.55;87.54;101992.47;5089548;28;20032;-66
2022/10/27 09:04:56;;;;;;;5.43;2.60;;;;;;;16.65;87.12;101995.56;5089736;28;20069;-65
2022/10/27 09:07:29;;;;;;;11.73;2.72;;;;;;;16.72;85.68;101984.78;5089578;28;20066;-66
2022/10/27 09:10:01;;;;;;;6.70;2.75;;;;;;;16.73;85.70;101992.66;5069915;28;20033;-66
2022/10/27 09:12:42;;;;;;;5.93;2.38;;;;;;;16.78;85.49;101986.66;5070507;28;20107;-66
2022/10/27 09:15:35;;;;;;;8.18;2.50;;;;;;;16.81;84.23;101978.97;5089021;28;20085;-66
2022/10/27 09:18:33;;;;;;;3.55;1.85;;;;;;;16.96;84.87;101956.38;5089402;28;20043;-66
2022/10/27 09:21:04;;;;;;;8.07;3.47;;;;;;;17.00;83.68;101966.53;5070299;28;20036;-65
2022/10/27 09:23:40;;;;;;;3.37;1.77;;;;;;;17.03;84.93;101958.00;5088463;28;20149;-66
2022/10/27 09:26:06;;;;;;;4.53;2.13;;;;;;;17.12;81.89;101952.38;5069761;28;20035;-66
2022/10/27 09:28:39;;;;;;;6.15;2.38;;;;;;;17.22;82.89;101948.19;5069803;28;20494;-65
2022/10/27 09:31:05;;;;;;;7.68;2.67;;;;;;;17.29;82.63;101948.13;5069791;28;20124;-66
2022/10/27 09:33:35;;;;;;;7.80;2.40;;;;;;;17.35;82.57;101947.31;5069959;28;20123;-66
2022/10/27 09:36:12;;;;;;;20.45;3.17;;;;;;;17.40;81.14;101950.19;5069064;28;20036;-66
2022/10/27 09:38:38;;;;;;;5.40;1.95;;;;;;;17.52;81.80;101959.22;5069732;28;20036;-66
2022/10/27 09:41:03;;;;;;;4.72;1.70;;;;;;;17.63;80.88;101948.78;5069816;28;20032;-66
2022/10/27 09:43:29;;;;;;;6.07;1.83;;;;;;;17.70;78.43;101952.28;5069669;28;20032;-66
2022/10/27 09:46:04;;;;;;;3.58;1.50;;;;;;;17.76;81.12;101948.72;5069666;28;20032;-66
2022/10/27 09:48:30;;;;;;;2.47;2.03;;;;;;;17.76;80.08;101937.91;5069565;28;20485;-66
2022/10/27 09:51:19;;;;;;;4.15;2.28;;;;;;;17.82;78.59;101941.69;5069585;28;20036;-66
2022/10/27 09:53:51;;;;;;;3.88;2.10;;;;;;;17.84;79.07;101926.91;5069585;28;20495;-67
2022/10/27 09:56:28;;;;;;;4.53;2.22;;;;;;;17.92;79.12;101929.34;5069583;28;20809;-66
2022/10/27 09:59:01;;;;;;;3.63;1.55;;;;;;;17.98;78.11;101926.81;5069670;28;20021;-65
2022/10/27 10:01:38;;;;;;;2.55;1.70;;;;;;;18.07;79.24;101922.78;5069750;28;20467;-66
2022/10/27 10:04:17;;;;;;;7.78;2.70;;;;;;;18.14;78.07;101918.97;5069472;28;20459;-65
2022/10/27 10:06:51;;;;;;;2.95;1.67;;;;;;;18.30;79.97;101916.78;5069494;28;20378;-65
2022/10/27 10:09:27;;;;;;;5.30;1.58;;;;;;;18.33;76.37;101921.72;5050761;28;20024;-65
2022/10/27 10:12:16;;;;;;;3.20;1.50;;;;;;;18.44;77.81;101930.97;5069506;28;20472;-66
2022/10/27 10:14:41;;;;;;;4.72;1.67;;;;;;;18.49;75.40;101921.16;5083388;28;20030;-66
2022/10/27 10:17:17;;;;;;;2.63;1.20;;;;;;;18.62;76.45;101931.81;5069904;28;20024;-66
2022/10/27 10:19:46;;;;;;;1.98;1.40;;;;;;;18.70;74.88;101925.28;5088776;28;20028;-67
2022/10/27 10:22:24;;;;;;;4.88;1.40;;;;;;;18.77;74.48;101915.28;5088527;28;20394;-67
2022/10/27 10:24:50;;;;;;;5.07;2.03;;;;;;;18.88;74.89;101915.56;5088717;28;20098;-67
2022/10/27 10:27:28;;;;;;;1.17;1.08;;;;;;;18.95;74.22;101916.34;5088294;28;20601;-68
2022/10/27 10:29:56;;;;;;;3.80;1.83;;;;;;;18.94;72.75;101911.97;5088771;28;20471;-67
2022/10/27 10:32:24;;;;;;;6.13;1.98;;;;;;;18.95;72.95;101909.03;5069135;28;20044;-66
2022/10/27 10:34:52;;;;;;;8.05;2.22;;;;;;;18.90;72.89;101910.78;5070436;28;20037;-67
2022/10/27 10:37:33;;;;;;;3.92;1.30;;;;;;;18.90;73.78;101899.97;5072400;28;20039;-67
2022/10/27 10:40:25;;;;;;;4.13;1.40;;;;;;;18.95;74.40;101894.72;5072978;28;20028;-67
2022/10/27 10:43:14;;;;;;;3.70;1.23;;;;;;;18.93;73.40;101897.63;5072810;28;20044;-67
2022/10/27 10:45:40;;;;;;;8.60;2.03;;;;;;;18.89;72.76;101911.81;5059438;28;20086;-67
2022/10/27 10:48:14;;;;;;;5.65;2.67;;;;;;;18.91;74.96;101905.13;5092155;28;20390;-67
2022/10/27 10:50:49;;;;;;;2.72;1.33;;;;;;;18.92;73.99;101906.78;5092197;28;20661;-67
2022/10/27 10:53:22;;;;;;;5.72;1.90;;;;;;;18.99;73.32;101890.47;5072541;28;20028;-67
2022/10/27 10:55:48;;;;;;;2.60;1.67;;;;;;;18.97;73.51;101889.91;5072625;28;20040;-67
2022/10/27 10:58:19;;;;;;;2.67;1.58;;;;;;;19.00;75.08;101884.84;5072690;28;20391;-68
2022/10/27 11:01:15;;;;;;;3.95;1.65;;;;;;;19.09;74.34;101884.53;5072651;28;20082;-68
2022/10/27 11:03:44;;;;;;;2.53;1.45;;;;;;;19.17;74.06;101882.34;5057525;28;20444;-68
2022/10/27 11:06:18;;;;;;;3.63;1.75;;;;;;;19.21;74.44;101872.72;5078617;28;20024;-68
2022/10/27 11:08:55;;;;;;;6.15;1.50;;;;;;;19.30;73.62;101875.09;5079652;28;20028;-68
2022/10/27 11:11:25;;;;;;;10.30;1.92;;;;;;;19.26;74.01;101870.16;5079575;28;20021;-67
2022/10/27 11:13:55;;;;;;;4.80;1.30;;;;;;;19.31;74.14;101883.00;5079244;28;20054;-66
2022/10/27 11:16:21;;;;;;;4.28;1.70;;;;;;;19.30;73.49;101875.09;5079477;28;21124;-67
2022/10/27 11:19:00;;;;;;;7.10;1.77;;;;;;;19.33;73.52;101871.94;5079040;28;20064;-67
2022/10/27 11:21:53;;;;;;;1.92;1.25;;;;;;;19.38;74.01;101875.59;5079272;28;20541;-67
2022/10/27 11:24:28;;;;;;;3.72;1.10;;;;;;;19.42;73.10;101882.19;5079175;28;21026;-68